createdAt,value
2023-03-17T00:02:18.960Z,506.00
2023-03-17T00:06:18.593Z,507.00
2023-03-17T00:10:18.778Z,503.00
2023-03-17T00:14:19.021Z,506.00
2023-03-17T00:18:19.202Z,506.00
2023-03-17T00:22:19.413Z,502.00
2023-03-17T00:26:19.642Z,500.00
2023-03-17T00:30:19.880Z,505.00
2023-03-17T00:34:20.070Z,508.00
2023-03-17T00:38:20.305Z,506.00
2023-03-17T00:42:20.483Z,506.00
2023-03-17T00:46:20.799Z,502.00
2023-03-17T00:50:20.907Z,504.00
2023-03-17T00:54:21.113Z,501.00
2023-03-17T00:58:21.347Z,502.00
2023-03-17T01:02:21.605Z,504.00
2023-03-17T01:06:21.774Z,500.00
2023-03-17T01:10:21.973Z,502.00
2023-03-17T01:14:22.190Z,510.00
2023-03-17T01:18:22.570Z,501.00
2023-03-17T01:22:22.357Z,509.00
2023-03-17T01:26:25.054Z,509.00
2023-03-17T01:30:22.293Z,506.00
2023-03-17T01:34:22.282Z,507.00
2023-03-17T01:38:22.241Z,511.00
2023-03-17T01:42:22.212Z,503.00
2023-03-17T01:46:22.128Z,502.00
2023-03-17T01:50:22.129Z,502.00
2023-03-17T01:54:22.146Z,503.00
2023-03-17T01:58:22.094Z,508.00
2023-03-17T02:02:22.054Z,509.00
2023-03-17T02:06:22.053Z,507.00
2023-03-17T02:10:22.016Z,506.00
2023-03-17T02:14:21.964Z,502.00
2023-03-17T02:18:21.916Z,504.00
2023-03-17T02:22:21.884Z,506.00
2023-03-17T02:26:21.850Z,507.00
2023-03-17T02:30:21.807Z,507.00
2023-03-17T02:34:21.954Z,503.00
2023-03-17T02:38:21.923Z,501.00
2023-03-17T02:42:21.885Z,502.00
2023-03-17T02:46:21.895Z,506.00
2023-03-17T02:50:21.810Z,511.00
2023-03-17T02:54:21.741Z,519.00
2023-03-17T02:58:21.748Z,507.00
2023-03-17T03:02:21.770Z,508.00
2023-03-17T03:06:21.681Z,504.00
2023-03-17T03:10:21.613Z,507.00
2023-03-17T03:14:21.566Z,519.00
2023-03-17T03:18:21.653Z,502.00
2023-03-17T03:22:21.791Z,518.00
2023-03-17T03:26:21.951Z,506.00
2023-03-17T03:30:22.176Z,502.00
2023-03-17T03:34:22.377Z,505.00
2023-03-17T03:38:22.568Z,508.00
2023-03-17T03:42:22.704Z,514.00
2023-03-17T03:46:22.882Z,506.00
2023-03-17T03:50:22.981Z,510.00
2023-03-17T03:54:23.130Z,514.00
2023-03-17T03:58:23.237Z,514.00
2023-03-17T04:02:23.417Z,509.00
2023-03-17T04:06:23.427Z,511.00
2023-03-17T04:10:23.520Z,509.00
2023-03-17T04:14:23.598Z,510.00
2023-03-17T04:18:23.696Z,508.00
2023-03-17T04:22:23.744Z,513.00
2023-03-17T04:26:23.694Z,511.00
2023-03-17T04:30:23.674Z,513.00
2023-03-17T04:34:23.681Z,513.00
2023-03-17T04:38:23.656Z,510.00
2023-03-17T04:42:23.716Z,507.00
2023-03-17T04:46:23.663Z,513.00
2023-03-17T04:50:23.630Z,509.00
2023-03-17T04:54:23.648Z,508.00
2023-03-17T04:58:30.857Z,511.00
2023-03-17T05:02:24.611Z,509.00
2023-03-17T05:06:23.580Z,512.00
2023-03-17T05:10:23.596Z,506.00
2023-03-17T05:14:23.601Z,512.00
2023-03-17T05:18:23.577Z,500.00
2023-03-17T05:22:23.557Z,502.00
2023-03-17T05:26:23.559Z,510.00
2023-03-17T05:30:23.547Z,502.00
2023-03-17T05:34:23.568Z,510.00
2023-03-17T05:38:23.515Z,508.00
2023-03-17T05:42:24.058Z,500.00
2023-03-17T05:46:23.506Z,510.00
2023-03-17T05:50:23.463Z,509.00
2023-03-17T05:54:23.446Z,513.00
2023-03-17T05:58:23.457Z,506.00
2023-03-17T06:02:23.480Z,515.00
2023-03-17T06:06:23.440Z,509.00
2023-03-17T06:10:23.425Z,509.00
2023-03-17T06:14:24.131Z,515.00
2023-03-17T06:18:23.418Z,510.00
2023-03-17T06:22:23.359Z,515.00
2023-03-17T06:26:23.332Z,506.00
2023-03-17T06:30:23.338Z,521.00
2023-03-17T06:34:23.339Z,522.00
2023-03-17T06:38:23.304Z,516.00
2023-03-17T06:42:23.566Z,546.00
2023-03-17T06:46:23.441Z,600.00
2023-03-17T06:50:23.582Z,622.00
2023-03-17T06:54:23.592Z,694.00
2023-03-17T06:58:23.611Z,752.00
2023-03-17T07:02:23.610Z,826.00
2023-03-17T07:06:23.174Z,752.00
2023-03-17T07:10:23.598Z,750.00
2023-03-17T07:14:23.127Z,818.00
2023-03-17T07:18:23.109Z,785.00
2023-03-17T07:22:23.053Z,861.00
2023-03-17T07:26:23.030Z,1000.00
2023-03-17T07:30:23.122Z,944.00
2023-03-17T07:34:23.197Z,976.00
2023-03-17T07:38:23.391Z,1009.00
2023-03-17T07:42:23.600Z,942.00
2023-03-17T07:46:23.656Z,869.00
2023-03-17T07:50:23.606Z,901.00
2023-03-17T07:54:24.125Z,1068.00
2023-03-17T07:58:23.412Z,1087.00
2023-03-17T08:02:23.679Z,892.00
2023-03-17T08:06:23.369Z,840.00
2023-03-17T08:10:23.347Z,860.00
2023-03-17T08:14:23.638Z,827.00
2023-03-17T08:18:23.276Z,761.00
2023-03-17T08:22:23.631Z,768.00
2023-03-17T08:26:23.177Z,812.00
2023-03-17T08:30:23.157Z,912.00
2023-03-17T08:34:23.104Z,936.00
2023-03-17T08:38:23.629Z,921.00
2023-03-17T08:42:23.632Z,894.00
2023-03-17T08:46:23.744Z,871.00
2023-03-17T08:50:23.230Z,934.00
2023-03-17T08:54:23.654Z,972.00
2023-03-17T08:58:23.390Z,993.00
2023-03-17T09:02:23.703Z,1039.00
2023-03-17T09:06:23.305Z,1084.00
2023-03-17T09:10:23.289Z,1117.00
2023-03-17T09:14:24.176Z,1166.00
2023-03-17T09:18:23.659Z,1208.00
2023-03-17T09:22:23.158Z,1241.00
2023-03-17T09:26:23.126Z,1283.00
2023-03-17T09:30:23.121Z,1309.00
2023-03-17T09:34:23.026Z,1317.00
2023-03-17T09:38:23.175Z,1252.00
2023-03-17T09:42:23.173Z,1276.00
2023-03-17T09:46:23.011Z,725.00
2023-03-17T09:50:23.166Z,544.00
2023-03-17T09:54:23.139Z,511.00
2023-03-17T09:58:22.805Z,554.00
2023-03-17T10:02:22.779Z,579.00
2023-03-17T10:06:22.799Z,553.00
2023-03-17T10:10:22.897Z,557.00
2023-03-17T10:14:23.191Z,533.00
2023-03-17T10:18:22.840Z,507.00
2023-03-17T10:22:22.781Z,531.00
2023-03-17T10:26:22.756Z,526.00
2023-03-17T10:30:23.181Z,562.00
2023-03-17T10:34:22.673Z,616.00
2023-03-17T10:38:22.663Z,612.00
2023-03-17T10:42:22.706Z,628.00
2023-03-17T10:46:22.764Z,619.00
2023-03-17T10:50:22.692Z,660.00
2023-03-17T10:54:22.566Z,690.00
2023-03-17T10:58:22.645Z,698.00
2023-03-17T11:02:23.202Z,745.00
2023-03-17T11:06:22.785Z,763.00
2023-03-17T11:10:23.222Z,730.00
2023-03-17T11:14:22.913Z,710.00
2023-03-17T11:18:22.978Z,792.00
2023-03-17T11:22:23.016Z,894.00
2023-03-17T11:26:23.023Z,957.00
2023-03-17T11:30:22.982Z,1042.00
2023-03-17T11:34:23.226Z,1088.00
2023-03-17T11:38:23.754Z,1125.00
2023-03-17T11:42:23.733Z,1147.00
2023-03-17T11:46:23.585Z,1171.00
2023-03-17T11:50:23.737Z,1218.00
2023-03-17T11:54:24.269Z,1138.00
2023-03-17T11:58:24.008Z,1149.00
2023-03-17T12:02:23.935Z,1198.00
2023-03-17T12:06:23.910Z,1190.00
2023-03-17T12:10:23.858Z,1119.00
2023-03-17T12:14:24.223Z,1108.00
2023-03-17T12:18:24.702Z,1072.00
2023-03-17T12:22:24.215Z,1052.00
2023-03-17T12:26:23.746Z,948.00
2023-03-17T12:30:23.718Z,958.00
2023-03-17T12:34:23.727Z,978.00
2023-03-17T12:38:23.733Z,947.00
2023-03-17T12:42:23.703Z,937.00
2023-03-17T12:46:23.688Z,863.00
2023-03-17T12:50:23.633Z,770.00
2023-03-17T12:54:23.763Z,657.00
2023-03-17T12:58:25.974Z,596.00
2023-03-17T13:02:23.507Z,452.00
2023-03-17T13:06:23.434Z,501.00
2023-03-17T13:10:23.432Z,547.00
2023-03-17T13:14:23.372Z,542.00
2023-03-17T13:18:23.344Z,500.00
2023-03-17T13:22:23.334Z,515.00
2023-03-17T13:26:23.267Z,587.00
2023-03-17T13:30:23.313Z,515.00
2023-03-17T13:34:23.207Z,570.00
2023-03-17T13:38:23.161Z,513.00
2023-03-17T13:42:23.172Z,579.00
2023-03-17T13:46:23.139Z,550.00
2023-03-17T13:50:23.062Z,626.00
2023-03-17T13:54:23.038Z,546.00
2023-03-17T13:58:23.022Z,502.00
2023-03-17T14:02:22.972Z,617.00
2023-03-17T14:06:22.942Z,660.00
2023-03-17T14:10:22.901Z,588.00
2023-03-17T14:14:32.574Z,645.00
2023-03-17T14:18:23.835Z,659.00
2023-03-17T14:22:22.780Z,736.00
2023-03-17T14:26:22.716Z,639.00
2023-03-17T14:30:22.693Z,628.00
2023-03-17T14:34:22.690Z,629.00
2023-03-17T14:38:22.842Z,718.00
2023-03-17T14:42:22.954Z,606.00
2023-03-17T14:46:23.191Z,848.00
2023-03-17T14:50:23.177Z,1139.00
2023-03-17T14:54:23.338Z,1307.00
2023-03-17T14:58:23.445Z,1503.00
2023-03-17T15:02:23.652Z,1613.00
2023-03-17T15:06:23.750Z,1699.00
2023-03-17T15:10:23.864Z,1758.00
2023-03-17T15:14:23.953Z,1825.00
2023-03-17T15:18:24.140Z,1862.00
2023-03-17T15:22:24.272Z,1893.00
2023-03-17T15:26:24.395Z,1934.00
2023-03-17T15:30:24.771Z,1955.00
2023-03-17T15:34:24.641Z,1974.00
2023-03-17T15:38:24.794Z,1988.00
2023-03-17T15:42:24.957Z,2005.00
2023-03-17T15:46:25.072Z,2001.00
2023-03-17T15:50:25.200Z,2005.00
2023-03-17T15:54:25.354Z,2002.00
2023-03-17T15:58:25.463Z,2007.00
2023-03-17T16:02:25.641Z,2012.00
2023-03-17T16:06:25.784Z,2004.00
2023-03-17T16:10:25.904Z,1992.00
2023-03-17T16:14:26.034Z,2000.00
2023-03-17T16:18:26.177Z,2000.00
2023-03-17T16:22:27.311Z,1988.00
2023-03-17T16:26:26.491Z,1978.00
2023-03-17T16:30:26.666Z,1979.00
2023-03-17T16:34:26.798Z,1987.00
2023-03-17T16:38:26.967Z,1959.00
2023-03-17T16:42:27.133Z,1972.00
2023-03-17T16:46:27.484Z,1954.00
2023-03-17T16:50:27.514Z,1948.00
2023-03-17T16:54:27.664Z,1942.00
2023-03-17T16:58:27.859Z,1928.00
2023-03-17T17:02:28.083Z,1923.00
2023-03-17T17:06:28.208Z,1913.00
2023-03-17T17:10:28.462Z,1912.00
2023-03-17T17:14:28.580Z,1904.00
2023-03-17T17:18:28.778Z,1907.00
2023-03-17T17:22:28.911Z,1884.00
2023-03-17T17:26:29.153Z,1890.00
2023-03-17T17:30:29.832Z,1891.00
2023-03-17T17:34:29.538Z,1865.00
2023-03-17T17:38:29.774Z,1869.00
2023-03-17T17:42:29.709Z,1859.00
2023-03-17T17:46:29.712Z,1854.00
2023-03-17T17:50:30.026Z,1846.00
2023-03-17T17:54:29.587Z,1841.00
2023-03-17T17:58:29.600Z,1830.00
2023-03-17T18:02:29.536Z,1824.00
2023-03-17T18:06:29.494Z,1820.00
2023-03-17T18:10:29.498Z,1817.00
2023-03-17T18:14:29.433Z,1813.00
2023-03-17T18:18:29.383Z,1800.00
2023-03-17T18:22:29.580Z,1793.00
2023-03-17T18:26:29.565Z,1777.00
2023-03-17T18:30:29.947Z,1782.00
2023-03-17T18:34:29.472Z,1778.00
2023-03-17T18:38:29.446Z,1767.00
2023-03-17T18:42:29.383Z,1747.00
2023-03-17T18:46:29.323Z,1744.00
2023-03-17T18:50:29.685Z,1752.00
2023-03-17T18:54:29.302Z,1742.00
2023-03-17T18:58:29.314Z,1726.00
2023-03-17T19:02:29.277Z,1714.00
2023-03-17T19:06:29.231Z,1713.00
2023-03-17T19:10:29.428Z,1711.00
2023-03-17T19:14:29.198Z,1695.00
2023-03-17T19:18:29.164Z,1697.00
2023-03-17T19:22:29.097Z,1693.00
2023-03-17T19:26:29.442Z,1685.00
2023-03-17T19:30:29.238Z,1688.00
2023-03-17T19:34:28.993Z,1679.00
2023-03-17T19:38:29.125Z,1682.00
2023-03-17T19:42:29.076Z,1661.00
2023-03-17T19:46:29.072Z,1654.00
2023-03-17T19:50:29.319Z,1655.00
2023-03-17T19:54:28.944Z,1651.00
2023-03-17T19:58:28.908Z,1640.00
2023-03-17T20:02:28.871Z,1645.00
2023-03-17T20:06:28.833Z,1626.00
2023-03-17T20:10:29.028Z,1623.00
2023-03-17T20:14:28.789Z,1609.00
2023-03-17T20:18:28.909Z,1611.00
2023-03-17T20:22:28.892Z,1606.00
2023-03-17T20:26:28.831Z,1599.00
2023-03-17T20:30:28.859Z,1589.00
2023-03-17T20:34:28.757Z,1600.00
2023-03-17T20:38:28.744Z,1593.00
2023-03-17T20:42:28.665Z,1573.00
2023-03-17T20:46:28.666Z,1570.00
2023-03-17T20:50:28.600Z,1576.00
2023-03-17T20:54:28.574Z,1570.00
2023-03-17T20:58:28.558Z,1547.00
2023-03-17T21:02:28.512Z,1542.00
2023-03-17T21:06:28.633Z,1541.00
2023-03-17T21:10:28.820Z,1524.00
2023-03-17T21:14:28.981Z,1525.00
2023-03-17T21:18:29.098Z,1519.00
2023-03-17T21:22:29.260Z,1518.00
2023-03-17T21:26:29.446Z,1513.00
2023-03-17T21:30:29.825Z,1489.00
2023-03-17T21:34:29.763Z,1488.00
2023-03-17T21:38:29.884Z,1493.00
2023-03-17T21:42:30.047Z,1481.00
2023-03-17T21:46:30.170Z,1480.00
2023-03-17T21:50:30.322Z,1461.00
2023-03-17T21:54:30.378Z,1466.00
2023-03-17T21:58:30.423Z,1461.00
2023-03-17T22:02:30.490Z,1457.00
2023-03-17T22:06:30.689Z,1448.00
2023-03-17T22:10:30.975Z,1438.00
2023-03-17T22:14:30.768Z,1427.00
2023-03-17T22:18:30.835Z,1428.00
2023-03-17T22:22:30.847Z,1419.00
2023-03-17T22:26:30.856Z,1414.00
2023-03-17T22:30:31.025Z,1408.00
2023-03-17T22:34:30.909Z,1406.00
2023-03-17T22:38:30.937Z,1414.00
2023-03-17T22:42:30.899Z,1400.00
2023-03-17T22:46:30.905Z,1406.00
2023-03-17T22:50:31.192Z,1396.00
2023-03-17T22:54:30.829Z,1373.00
2023-03-17T22:58:30.834Z,1380.00
2023-03-17T23:02:30.836Z,1366.00
2023-03-17T23:06:30.828Z,1354.00
2023-03-17T23:10:31.067Z,1372.00
2023-03-17T23:14:30.765Z,1350.00
2023-03-17T23:18:30.733Z,1337.00
2023-03-17T23:22:30.726Z,1328.00
2023-03-17T23:26:30.738Z,1338.00
2023-03-17T23:30:31.242Z,1322.00
2023-03-17T23:34:30.668Z,1319.00
2023-03-17T23:38:30.651Z,1314.00
2023-03-17T23:42:30.632Z,1304.00
2023-03-17T23:46:30.731Z,1306.00
2023-03-17T23:50:30.911Z,1303.00
2023-03-17T23:54:30.606Z,1295.00
2023-03-17T23:58:30.596Z,1295.00
